Higgins, Oklahoma
Current Conditions -  °F | °C
As of 7:53 AM on Friday 31 Oct 2014 (Local Time) from KMLC Reporting Station
Few Clouds Few Clouds  
Wind Chill: 10°   Ceiling: Unl
Heat Index: 10°   Visibility: 10mi
Dew Point:   Wind: 14mph
Humidity: 71%   Direction: 360°N
Pressure: 30.3"   Gusts: NA
Location:  34.8806°N, 95.3086°W
Report Text: KMLC 311253Z AUTO 36012KT 10SM FEW110 10/05 A3030 RMK AO2 SLP260 T01000050
Loading
Personal Weather Stations






























Interactive Weather Map
Tropical Storm Tracking
New forecast layout! Learn more

10-Day Weather Forecast

Advertisements
Track Severe Weather on mobile